sensor_id;sensor_type;location;lat;lon;timestamp;pressure;altitude;pressure_sealevel;temperature;humidity
61357;BME280;47227;46.752;23.576;2024-01-07T00:00:19;95010.95;;;4.08;77.37
61357;BME280;47227;46.752;23.576;2024-01-07T00:03:08;95013.05;;;4.10;77.40
61357;BME280;47227;46.752;23.576;2024-01-07T00:05:36;95016.27;;;4.09;77.39
61357;BME280;47227;46.752;23.576;2024-01-07T00:08:06;95015.98;;;4.12;77.12
61357;BME280;47227;46.752;23.576;2024-01-07T00:10:34;95020.54;;;4.15;77.34
61357;BME280;47227;46.752;23.576;2024-01-07T00:13:03;95025.79;;;4.19;77.10
61357;BME280;47227;46.752;23.576;2024-01-07T00:15:32;95024.98;;;4.24;76.91
61357;BME280;47227;46.752;23.576;2024-01-07T00:18:00;95024.80;;;4.25;76.73
61357;BME280;47227;46.752;23.576;2024-01-07T00:20:29;95027.80;;;4.21;76.44
61357;BME280;47227;46.752;23.576;2024-01-07T00:22:58;95019.53;;;4.21;76.39
61357;BME280;47227;46.752;23.576;2024-01-07T00:25:26;95017.58;;;4.21;76.25
61357;BME280;47227;46.752;23.576;2024-01-07T00:27:55;95018.95;;;4.20;75.87
61357;BME280;47227;46.752;23.576;2024-01-07T00:30:23;95024.23;;;4.19;75.79
61357;BME280;47227;46.752;23.576;2024-01-07T00:32:52;95028.80;;;4.15;75.53
61357;BME280;47227;46.752;23.576;2024-01-07T00:35:21;95026.04;;;4.11;75.83
61357;BME280;47227;46.752;23.576;2024-01-07T00:37:49;95019.88;;;4.08;75.85
61357;BME280;47227;46.752;23.576;2024-01-07T00:40:18;95022.16;;;4.02;75.80
61357;BME280;47227;46.752;23.576;2024-01-07T00:42:46;95021.66;;;3.96;75.88
61357;BME280;47227;46.752;23.576;2024-01-07T00:45:15;95021.46;;;3.89;75.86
61357;BME280;47227;46.752;23.576;2024-01-07T00:47:43;95017.53;;;3.84;75.73
61357;BME280;47227;46.752;23.576;2024-01-07T00:50:12;95016.14;;;3.80;75.92
61357;BME280;47227;46.752;23.576;2024-01-07T00:52:41;95015.80;;;3.76;75.89
61357;BME280;47227;46.752;23.576;2024-01-07T00:55:11;95018.95;;;3.72;76.19
61357;BME280;47227;46.752;23.576;2024-01-07T00:57:40;95019.96;;;3.66;76.47
61357;BME280;47227;46.752;23.576;2024-01-07T01:00:10;95017.88;;;3.63;76.73
61357;BME280;47227;46.752;23.576;2024-01-07T01:02:38;95021.70;;;3.62;76.40
61357;BME280;47227;46.752;23.576;2024-01-07T01:05:07;95013.02;;;3.61;76.19
61357;BME280;47227;46.752;23.576;2024-01-07T01:07:36;95005.15;;;3.62;76.24
61357;BME280;47227;46.752;23.576;2024-01-07T01:10:06;95003.45;;;3.62;76.27
61357;BME280;47227;46.752;23.576;2024-01-07T01:12:34;94996.86;;;3.63;76.17
61357;BME280;47227;46.752;23.576;2024-01-07T01:15:03;94993.30;;;3.61;76.33
61357;BME280;47227;46.752;23.576;2024-01-07T01:17:32;94992.32;;;3.61;76.06
61357;BME280;47227;46.752;23.576;2024-01-07T01:20:01;94990.96;;;3.61;76.17
61357;BME280;47227;46.752;23.576;2024-01-07T01:22:29;94991.21;;;3.60;76.87
61357;BME280;47227;46.752;23.576;2024-01-07T01:24:58;94986.73;;;3.59;77.67
61357;BME280;47227;46.752;23.576;2024-01-07T01:27:27;94985.10;;;3.60;76.95
61357;BME280;47227;46.752;23.576;2024-01-07T01:29:55;94978.48;;;3.64;76.79
61357;BME280;47227;46.752;23.576;2024-01-07T01:32:24;94970.95;;;3.69;76.84
61357;BME280;47227;46.752;23.576;2024-01-07T01:34:52;94957.25;;;3.73;76.82
61357;BME280;47227;46.752;23.576;2024-01-07T01:37:21;94955.80;;;3.77;76.77
61357;BME280;47227;46.752;23.576;2024-01-07T01:39:49;94959.80;;;3.80;77.56
61357;BME280;47227;46.752;23.576;2024-01-07T01:42:18;94956.74;;;3.84;77.05
61357;BME280;47227;46.752;23.576;2024-01-07T01:44:46;94945.55;;;3.89;76.89
61357;BME280;47227;46.752;23.576;2024-01-07T01:47:15;94940.32;;;3.96;76.89
61357;BME280;47227;46.752;23.576;2024-01-07T01:49:45;94942.85;;;4.02;76.66
61357;BME280;47227;46.752;23.576;2024-01-07T01:52:14;94938.95;;;4.06;76.67
61357;BME280;47227;46.752;23.576;2024-01-07T01:54:43;94941.89;;;4.08;76.41
61357;BME280;47227;46.752;23.576;2024-01-07T01:57:17;94965.90;;;4.00;76.39
61357;BME280;47227;46.752;23.576;2024-01-07T01:59:48;94956.71;;;4.00;76.17
61357;BME280;47227;46.752;23.576;2024-01-07T02:02:17;94943.98;;;4.02;76.01
61357;BME280;47227;46.752;23.576;2024-01-07T02:04:45;94937.10;;;4.04;75.91
61357;BME280;47227;46.752;23.576;2024-01-07T02:07:14;94934.75;;;4.03;75.43
61357;BME280;47227;46.752;23.576;2024-01-07T02:09:42;94928.14;;;4.09;75.69
61357;BME280;47227;46.752;23.576;2024-01-07T02:12:11;94933.45;;;4.14;75.61
61357;BME280;47227;46.752;23.576;2024-01-07T02:14:40;94935.38;;;4.15;75.71
61357;BME280;47227;46.752;23.576;2024-01-07T02:17:09;94930.96;;;4.11;75.37
61357;BME280;47227;46.752;23.576;2024-01-07T02:19:37;94932.70;;;4.08;75.27
61357;BME280;47227;46.752;23.576;2024-01-07T02:22:06;94928.02;;;4.04;75.41
61357;BME280;47227;46.752;23.576;2024-01-07T02:24:35;94929.64;;;4.01;75.52
61357;BME280;47227;46.752;23.576;2024-01-07T02:27:04;94923.67;;;3.98;75.51
61357;BME280;47227;46.752;23.576;2024-01-07T02:29:32;94920.97;;;3.93;75.23
61357;BME280;47227;46.752;23.576;2024-01-07T02:32:01;94924.30;;;3.89;75.24
61357;BME280;47227;46.752;23.576;2024-01-07T02:34:30;94917.54;;;3.85;75.52
61357;BME280;47227;46.752;23.576;2024-01-07T02:36:59;94916.27;;;3.80;75.46
61357;BME280;47227;46.752;23.576;2024-01-07T02:39:27;94913.44;;;3.70;75.94
61357;BME280;47227;46.752;23.576;2024-01-07T02:41:56;94917.34;;;3.61;75.90
61357;BME280;47227;46.752;23.576;2024-01-07T02:44:24;94919.63;;;3.50;76.03
61357;BME280;47227;46.752;23.576;2024-01-07T02:46:53;94916.08;;;3.43;76.26
61357;BME280;47227;46.752;23.576;2024-01-07T02:49:22;94909.55;;;3.37;76.67
61357;BME280;47227;46.752;23.576;2024-01-07T02:51:51;94906.73;;;3.32;77.80
61357;BME280;47227;46.752;23.576;2024-01-07T02:54:19;94905.31;;;3.24;79.72
61357;BME280;47227;46.752;23.576;2024-01-07T02:56:48;94899.77;;;3.20;79.54
61357;BME280;47227;46.752;23.576;2024-01-07T02:59:16;94899.35;;;3.21;78.88
61357;BME280;47227;46.752;23.576;2024-01-07T03:01:45;94896.03;;;3.23;79.37
61357;BME280;47227;46.752;23.576;2024-01-07T03:04:16;94897.85;;;3.24;79.95
61357;BME280;47227;46.752;23.576;2024-01-07T03:06:44;94898.59;;;3.25;80.19
61357;BME280;47227;46.752;23.576;2024-01-07T03:09:13;94896.80;;;3.26;79.57
61357;BME280;47227;46.752;23.576;2024-01-07T03:11:41;94891.89;;;3.31;79.16
61357;BME280;47227;46.752;23.576;2024-01-07T03:14:10;94890.14;;;3.35;79.06
61357;BME280;47227;46.752;23.576;2024-01-07T03:16:38;94891.15;;;3.36;79.39
61357;BME280;47227;46.752;23.576;2024-01-07T03:19:07;94894.53;;;3.38;79.10
61357;BME280;47227;46.752;23.576;2024-01-07T03:21:36;94891.74;;;3.41;78.61
61357;BME280;47227;46.752;23.576;2024-01-07T03:24:05;94887.71;;;3.46;78.57
61357;BME280;47227;46.752;23.576;2024-01-07T03:26:33;94884.48;;;3.52;78.56
61357;BME280;47227;46.752;23.576;2024-01-07T03:29:02;94881.03;;;3.56;78.56
61357;BME280;47227;46.752;23.576;2024-01-07T03:31:31;94881.59;;;3.59;78.43
61357;BME280;47227;46.752;23.576;2024-01-07T03:34:00;94881.41;;;3.61;78.39
61357;BME280;47227;46.752;23.576;2024-01-07T03:36:29;94881.80;;;3.63;78.32
61357;BME280;47227;46.752;23.576;2024-01-07T03:38:57;94881.05;;;3.65;78.24
61357;BME280;47227;46.752;23.576;2024-01-07T03:41:26;94879.22;;;3.63;78.18
61357;BME280;47227;46.752;23.576;2024-01-07T03:43:54;94877.69;;;3.59;78.28
61357;BME280;47227;46.752;23.576;2024-01-07T03:46:23;94872.74;;;3.53;78.53
61357;BME280;47227;46.752;23.576;2024-01-07T03:48:52;94874.54;;;3.49;78.30
61357;BME280;47227;46.752;23.576;2024-01-07T03:51:21;94871.21;;;3.51;78.35
61357;BME280;47227;46.752;23.576;2024-01-07T03:53:49;94867.07;;;3.55;78.07
61357;BME280;47227;46.752;23.576;2024-01-07T03:56:18;94867.69;;;3.55;77.97
61357;BME280;47227;46.752;23.576;2024-01-07T03:58:47;94869.34;;;3.55;77.83
61357;BME280;47227;46.752;23.576;2024-01-07T04:01:17;94864.67;;;3.51;77.65
61357;BME280;47227;46.752;23.576;2024-01-07T04:03:46;94866.67;;;3.46;77.63
61357;BME280;47227;46.752;23.576;2024-01-07T04:06:15;94868.80;;;3.39;77.50
61357;BME280;47227;46.752;23.576;2024-01-07T04:08:44;94866.29;;;3.33;77.35
61357;BME280;47227;46.752;23.576;2024-01-07T04:11:12;94866.13;;;3.31;77.44
61357;BME280;47227;46.752;23.576;2024-01-07T04:13:41;94863.98;;;3.29;77.56
61357;BME280;47227;46.752;23.576;2024-01-07T04:16:17;94860.06;;;3.26;77.52
61357;BME280;47227;46.752;23.576;2024-01-07T04:18:46;94856.36;;;3.25;77.69
61357;BME280;47227;46.752;23.576;2024-01-07T04:21:21;94859.21;;;3.25;77.84
61357;BME280;47227;46.752;23.576;2024-01-07T04:23:49;94854.09;;;3.22;77.93
61357;BME280;47227;46.752;23.576;2024-01-07T04:26:18;94856.14;;;3.21;77.74
61357;BME280;47227;46.752;23.576;2024-01-07T04:28:46;94854.66;;;3.20;78.18
61357;BME280;47227;46.752;23.576;2024-01-07T04:31:15;94856.16;;;3.16;77.89
61357;BME280;47227;46.752;23.576;2024-01-07T04:33:44;94848.02;;;3.12;77.73
61357;BME280;47227;46.752;23.576;2024-01-07T04:36:13;94848.48;;;3.08;77.59
61357;BME280;47227;46.752;23.576;2024-01-07T04:38:41;94844.66;;;3.06;77.68
61357;BME280;47227;46.752;23.576;2024-01-07T04:41:10;94839.59;;;3.03;77.66
61357;BME280;47227;46.752;23.576;2024-01-07T04:43:38;94838.51;;;3.00;77.66
61357;BME280;47227;46.752;23.576;2024-01-07T04:46:07;94839.17;;;2.97;78.13
61357;BME280;47227;46.752;23.576;2024-01-07T04:48:35;94833.54;;;2.91;77.95
61357;BME280;47227;46.752;23.576;2024-01-07T04:51:04;94833.02;;;2.87;77.92
61357;BME280;47227;46.752;23.576;2024-01-07T04:53:32;94833.88;;;2.84;77.89
61357;BME280;47227;46.752;23.576;2024-01-07T04:56:01;94835.92;;;2.82;77.81
61357;BME280;47227;46.752;23.576;2024-01-07T04:58:31;94835.94;;;2.79;77.87
61357;BME280;47227;46.752;23.576;2024-01-07T05:00:59;94839.52;;;2.76;78.10
61357;BME280;47227;46.752;23.576;2024-01-07T05:03:28;94839.37;;;2.74;78.02
61357;BME280;47227;46.752;23.576;2024-01-07T05:05:57;94837.81;;;2.74;78.22
61357;BME280;47227;46.752;23.576;2024-01-07T05:08:26;94836.66;;;2.76;78.55
61357;BME280;47227;46.752;23.576;2024-01-07T05:10:55;94831.47;;;2.78;78.55
61357;BME280;47227;46.752;23.576;2024-01-07T05:13:24;94829.46;;;2.82;78.66
61357;BME280;47227;46.752;23.576;2024-01-07T05:15:52;94826.52;;;2.86;78.79
61357;BME280;47227;46.752;23.576;2024-01-07T05:18:25;94829.17;;;2.90;78.83
61357;BME280;47227;46.752;23.576;2024-01-07T05:20:54;94826.22;;;2.93;78.75
61357;BME280;47227;46.752;23.576;2024-01-07T05:23:22;94823.96;;;2.94;78.77
61357;BME280;47227;46.752;23.576;2024-01-07T05:25:51;94820.58;;;2.96;78.82
61357;BME280;47227;46.752;23.576;2024-01-07T05:28:19;94816.48;;;2.99;78.86
61357;BME280;47227;46.752;23.576;2024-01-07T05:30:51;94813.53;;;3.03;78.96
61357;BME280;47227;46.752;23.576;2024-01-07T05:33:20;94815.45;;;3.07;79.06
61357;BME280;47227;46.752;23.576;2024-01-07T05:35:48;94818.88;;;3.10;78.90
61357;BME280;47227;46.752;23.576;2024-01-07T05:38:17;94815.39;;;3.12;79.15
61357;BME280;47227;46.752;23.576;2024-01-07T05:40:46;94818.34;;;3.13;78.96
61357;BME280;47227;46.752;23.576;2024-01-07T05:43:14;94815.05;;;3.11;78.72
61357;BME280;47227;46.752;23.576;2024-01-07T05:45:42;94817.29;;;3.08;78.62
61357;BME280;47227;46.752;23.576;2024-01-07T05:48:11;94816.86;;;3.04;78.56
61357;BME280;47227;46.752;23.576;2024-01-07T05:50:40;94817.36;;;2.96;78.55
61357;BME280;47227;46.752;23.576;2024-01-07T05:53:08;94815.20;;;2.88;78.68
61357;BME280;47227;46.752;23.576;2024-01-07T05:55:37;94812.64;;;2.83;79.07
61357;BME280;47227;46.752;23.576;2024-01-07T05:58:05;94816.63;;;2.80;79.28
61357;BME280;47227;46.752;23.576;2024-01-07T06:00:34;94815.73;;;2.78;79.38
61357;BME280;47227;46.752;23.576;2024-01-07T06:03:03;94811.98;;;2.77;78.80
61357;BME280;47227;46.752;23.576;2024-01-07T06:05:32;94810.12;;;2.74;78.83
61357;BME280;47227;46.752;23.576;2024-01-07T06:08:00;94812.41;;;2.72;78.69
61357;BME280;47227;46.752;23.576;2024-01-07T06:10:29;94814.39;;;2.70;78.53
61357;BME280;47227;46.752;23.576;2024-01-07T06:12:58;94812.89;;;2.70;78.53
61357;BME280;47227;46.752;23.576;2024-01-07T06:15:26;94812.59;;;2.71;78.73
61357;BME280;47227;46.752;23.576;2024-01-07T06:17:55;94809.27;;;2.70;78.57
61357;BME280;47227;46.752;23.576;2024-01-07T06:20:24;94805.64;;;2.70;78.56
61357;BME280;47227;46.752;23.576;2024-01-07T06:22:52;94804.87;;;2.69;78.61
61357;BME280;47227;46.752;23.576;2024-01-07T06:25:21;94800.25;;;2.69;78.50
61357;BME280;47227;46.752;23.576;2024-01-07T06:27:49;94798.24;;;2.67;78.43
61357;BME280;47227;46.752;23.576;2024-01-07T06:30:18;94798.90;;;2.67;78.53
61357;BME280;47227;46.752;23.576;2024-01-07T06:32:47;94796.61;;;2.62;78.72
61357;BME280;47227;46.752;23.576;2024-01-07T06:35:17;94793.77;;;2.59;78.51
61357;BME280;47227;46.752;23.576;2024-01-07T06:37:45;94793.14;;;2.59;78.89
61357;BME280;47227;46.752;23.576;2024-01-07T06:40:14;94792.47;;;2.59;78.63
61357;BME280;47227;46.752;23.576;2024-01-07T06:42:42;94791.52;;;2.58;78.67
61357;BME280;47227;46.752;23.576;2024-01-07T06:45:13;94790.17;;;2.58;78.66
61357;BME280;47227;46.752;23.576;2024-01-07T06:47:42;94787.89;;;2.57;78.76
61357;BME280;47227;46.752;23.576;2024-01-07T06:50:10;94786.40;;;2.58;78.74
61357;BME280;47227;46.752;23.576;2024-01-07T06:52:39;94785.19;;;2.60;78.83
61357;BME280;47227;46.752;23.576;2024-01-07T06:55:08;94787.38;;;2.62;78.79
61357;BME280;47227;46.752;23.576;2024-01-07T06:57:37;94790.38;;;2.64;78.88
61357;BME280;47227;46.752;23.576;2024-01-07T07:00:06;94787.48;;;2.68;78.86
61357;BME280;47227;46.752;23.576;2024-01-07T07:02:36;94788.63;;;2.75;78.86
61357;BME280;47227;46.752;23.576;2024-01-07T07:05:05;94789.70;;;2.83;78.89
61357;BME280;47227;46.752;23.576;2024-01-07T07:07:33;94787.42;;;2.90;78.89
61357;BME280;47227;46.752;23.576;2024-01-07T07:10:02;94784.48;;;2.97;79.03
61357;BME280;47227;46.752;23.576;2024-01-07T07:12:32;94782.11;;;3.04;78.72
61357;BME280;47227;46.752;23.576;2024-01-07T07:15:00;94779.52;;;3.12;78.89
61357;BME280;47227;46.752;23.576;2024-01-07T07:17:29;94776.34;;;3.20;78.82
61357;BME280;47227;46.752;23.576;2024-01-07T07:19:58;94773.59;;;3.28;78.94
61357;BME280;47227;46.752;23.576;2024-01-07T07:22:26;94775.13;;;3.35;78.75
61357;BME280;47227;46.752;23.576;2024-01-07T07:24:55;94776.15;;;3.41;78.74
61357;BME280;47227;46.752;23.576;2024-01-07T07:27:28;94779.29;;;3.47;78.60
61357;BME280;47227;46.752;23.576;2024-01-07T07:29:57;94781.41;;;3.50;78.32
61357;BME280;47227;46.752;23.576;2024-01-07T07:32:25;94783.27;;;3.55;78.44
61357;BME280;47227;46.752;23.576;2024-01-07T07:34:54;94774.83;;;3.62;78.53
61357;BME280;47227;46.752;23.576;2024-01-07T07:37:23;94774.39;;;3.70;78.40
61357;BME280;47227;46.752;23.576;2024-01-07T07:39:51;94778.05;;;3.76;78.43
61357;BME280;47227;46.752;23.576;2024-01-07T07:42:20;94783.30;;;3.81;78.40
61357;BME280;47227;46.752;23.576;2024-01-07T07:44:48;94781.77;;;3.84;78.26
61357;BME280;47227;46.752;23.576;2024-01-07T07:47:18;94785.81;;;3.87;78.06
61357;BME280;47227;46.752;23.576;2024-01-07T07:49:46;94781.48;;;3.89;78.20
61357;BME280;47227;46.752;23.576;2024-01-07T07:52:15;94780.83;;;3.91;78.16
61357;BME280;47227;46.752;23.576;2024-01-07T07:54:44;94781.27;;;3.93;77.97
61357;BME280;47227;46.752;23.576;2024-01-07T07:57:13;94780.92;;;3.95;77.98
61357;BME280;47227;46.752;23.576;2024-01-07T07:59:41;94780.03;;;3.99;77.95
61357;BME280;47227;46.752;23.576;2024-01-07T08:02:10;94774.71;;;4.01;77.71
61357;BME280;47227;46.752;23.576;2024-01-07T08:04:39;94774.23;;;4.04;77.92
61357;BME280;47227;46.752;23.576;2024-01-07T08:07:09;94780.64;;;4.08;78.06
61357;BME280;47227;46.752;23.576;2024-01-07T08:09:38;94784.63;;;4.11;77.82
61357;BME280;47227;46.752;23.576;2024-01-07T08:12:07;94782.21;;;4.13;77.95
61357;BME280;47227;46.752;23.576;2024-01-07T08:14:35;94781.94;;;4.16;77.64
61357;BME280;47227;46.752;23.576;2024-01-07T08:17:04;94780.40;;;4.18;77.60
61357;BME280;47227;46.752;23.576;2024-01-07T08:19:33;94775.34;;;4.21;77.44
61357;BME280;47227;46.752;23.576;2024-01-07T08:22:02;94772.95;;;4.25;77.54
61357;BME280;47227;46.752;23.576;2024-01-07T08:24:31;94776.77;;;4.28;77.39
61357;BME280;47227;46.752;23.576;2024-01-07T08:27:00;94775.70;;;4.30;77.34
61357;BME280;47227;46.752;23.576;2024-01-07T08:29:29;94775.27;;;4.34;77.31
61357;BME280;47227;46.752;23.576;2024-01-07T08:31:58;94775.04;;;4.38;77.25
61357;BME280;47227;46.752;23.576;2024-01-07T08:34:27;94770.34;;;4.40;77.22
61357;BME280;47227;46.752;23.576;2024-01-07T08:36:55;94772.65;;;4.43;77.03
61357;BME280;47227;46.752;23.576;2024-01-07T08:39:24;94771.13;;;4.46;77.14
61357;BME280;47227;46.752;23.576;2024-01-07T08:41:54;94771.91;;;4.51;77.15
61357;BME280;47227;46.752;23.576;2024-01-07T08:44:22;94773.61;;;4.56;77.21
61357;BME280;47227;46.752;23.576;2024-01-07T08:46:51;94774.58;;;4.59;76.71
61357;BME280;47227;46.752;23.576;2024-01-07T08:49:19;94773.20;;;4.63;76.93
61357;BME280;47227;46.752;23.576;2024-01-07T08:51:48;94763.64;;;4.68;76.65
61357;BME280;47227;46.752;23.576;2024-01-07T08:54:17;94759.46;;;4.78;76.83
61357;BME280;47227;46.752;23.576;2024-01-07T08:56:46;94756.75;;;4.88;76.70
61357;BME280;47227;46.752;23.576;2024-01-07T08:59:14;94752.96;;;4.98;77.00
61357;BME280;47227;46.752;23.576;2024-01-07T09:01:43;94750.98;;;5.09;76.81
61357;BME280;47227;46.752;23.576;2024-01-07T09:04:11;94748.48;;;5.19;76.87
61357;BME280;47227;46.752;23.576;2024-01-07T09:06:40;94746.92;;;5.27;76.80
61357;BME280;47227;46.752;23.576;2024-01-07T09:09:09;94749.33;;;5.38;76.91
61357;BME280;47227;46.752;23.576;2024-01-07T09:11:37;94751.89;;;5.49;76.67
61357;BME280;47227;46.752;23.576;2024-01-07T09:14:06;94745.17;;;5.60;76.22
61357;BME280;47227;46.752;23.576;2024-01-07T09:16:36;94743.61;;;5.71;76.02
61357;BME280;47227;46.752;23.576;2024-01-07T09:19:04;94737.14;;;5.80;75.73
61357;BME280;47227;46.752;23.576;2024-01-07T09:21:33;94737.02;;;5.87;75.25
61357;BME280;47227;46.752;23.576;2024-01-07T09:24:02;94732.48;;;5.95;75.00
61357;BME280;47227;46.752;23.576;2024-01-07T09:26:30;94728.14;;;6.00;74.86
61357;BME280;47227;46.752;23.576;2024-01-07T09:28:59;94719.88;;;6.04;74.71
61357;BME280;47227;46.752;23.576;2024-01-07T09:31:27;94712.27;;;6.03;74.53
61357;BME280;47227;46.752;23.576;2024-01-07T09:33:56;94709.19;;;5.97;73.68
61357;BME280;47227;46.752;23.576;2024-01-07T09:36:25;94707.98;;;5.97;74.21
61357;BME280;47227;46.752;23.576;2024-01-07T09:38:57;94698.63;;;6.01;74.19
61357;BME280;47227;46.752;23.576;2024-01-07T09:41:26;94697.70;;;6.05;74.38
61357;BME280;47227;46.752;23.576;2024-01-07T09:43:54;94696.16;;;6.09;74.60
61357;BME280;47227;46.752;23.576;2024-01-07T09:46:28;94695.06;;;6.12;74.43
61357;BME280;47227;46.752;23.576;2024-01-07T09:48:58;94691.99;;;6.15;74.18
61357;BME280;47227;46.752;23.576;2024-01-07T09:51:29;94691.85;;;6.17;74.15
61357;BME280;47227;46.752;23.576;2024-01-07T09:54:02;94689.61;;;6.22;74.06
61357;BME280;47227;46.752;23.576;2024-01-07T09:56:38;94688.02;;;6.32;74.34
61357;BME280;47227;46.752;23.576;2024-01-07T09:59:09;94688.75;;;6.44;74.17
61357;BME280;47227;46.752;23.576;2024-01-07T10:01:38;94683.81;;;6.58;73.78
61357;BME280;47227;46.752;23.576;2024-01-07T10:04:07;94683.64;;;6.72;73.92
61357;BME280;47227;46.752;23.576;2024-01-07T10:06:36;94684.20;;;6.88;73.75
61357;BME280;47227;46.752;23.576;2024-01-07T10:09:06;94681.15;;;7.07;73.62
61357;BME280;47227;46.752;23.576;2024-01-07T10:11:35;94677.36;;;7.65;74.87
61357;BME280;47227;46.752;23.576;2024-01-07T10:14:04;94674.28;;;8.78;67.43
61357;BME280;47227;46.752;23.576;2024-01-07T10:16:33;94670.10;;;9.56;68.64
61357;BME280;47227;46.752;23.576;2024-01-07T10:19:01;94666.15;;;10.44;69.93
61357;BME280;47227;46.752;23.576;2024-01-07T10:21:30;94664.91;;;10.99;68.10
61357;BME280;47227;46.752;23.576;2024-01-07T10:26:40;94665.61;;;11.61;64.20
61357;BME280;47227;46.752;23.576;2024-01-07T10:29:09;94668.02;;;11.51;56.13
61357;BME280;47227;46.752;23.576;2024-01-07T10:31:38;94663.21;;;11.49;57.22
61357;BME280;47227;46.752;23.576;2024-01-07T10:34:10;94657.83;;;11.32;55.88
61357;BME280;47227;46.752;23.576;2024-01-07T10:36:40;94654.54;;;11.21;58.75
61357;BME280;47227;46.752;23.576;2024-01-07T10:39:09;94651.65;;;11.31;58.34
61357;BME280;47227;46.752;23.576;2024-01-07T10:41:38;94643.84;;;11.36;58.82
61357;BME280;47227;46.752;23.576;2024-01-07T10:44:07;94643.50;;;11.61;59.09
61357;BME280;47227;46.752;23.576;2024-01-07T10:46:36;94644.22;;;11.94;58.21
61357;BME280;47227;46.752;23.576;2024-01-07T10:49:14;94643.13;;;12.18;58.69
61357;BME280;47227;46.752;23.576;2024-01-07T10:54:28;94637.05;;;12.27;57.98
61357;BME280;47227;46.752;23.576;2024-01-07T10:57:02;94634.16;;;12.10;54.70
61357;BME280;47227;46.752;23.576;2024-01-07T10:59:33;94630.98;;;11.75;51.86
61357;BME280;47227;46.752;23.576;2024-01-07T11:02:03;94631.85;;;11.37;51.50
61357;BME280;47227;46.752;23.576;2024-01-07T11:04:51;94627.57;;;11.22;53.28
61357;BME280;47227;46.752;23.576;2024-01-07T11:07:30;94626.55;;;10.99;52.38
61357;BME280;47227;46.752;23.576;2024-01-07T11:10:16;94623.66;;;10.85;54.15
61357;BME280;47227;46.752;23.576;2024-01-07T11:12:53;94618.50;;;10.83;54.58
61357;BME280;47227;46.752;23.576;2024-01-07T11:18:22;94616.78;;;10.63;54.91
61357;BME280;47227;46.752;23.576;2024-01-07T11:20:53;94614.48;;;10.59;53.74
61357;BME280;47227;46.752;23.576;2024-01-07T11:23:36;94612.75;;;10.63;53.84
61357;BME280;47227;46.752;23.576;2024-01-07T11:26:12;94612.42;;;10.70;52.69
61357;BME280;47227;46.752;23.576;2024-01-07T11:28:47;94611.33;;;10.69;52.52
61357;BME280;47227;46.752;23.576;2024-01-07T11:31:18;94610.65;;;10.79;54.03
61357;BME280;47227;46.752;23.576;2024-01-07T11:33:49;94608.66;;;10.93;53.33
61357;BME280;47227;46.752;23.576;2024-01-07T11:36:18;94607.81;;;11.09;54.21
61357;BME280;47227;46.752;23.576;2024-01-07T11:38:48;94605.80;;;11.20;53.50
61357;BME280;47227;46.752;23.576;2024-01-07T11:41:23;94599.91;;;11.32;52.21
61357;BME280;47227;46.752;23.576;2024-01-07T11:43:57;94597.32;;;11.49;52.83
61357;BME280;47227;46.752;23.576;2024-01-07T11:46:33;94602.52;;;11.67;50.64
61357;BME280;47227;46.752;23.576;2024-01-07T11:49:03;94595.82;;;11.96;51.26
61357;BME280;47227;46.752;23.576;2024-01-07T11:51:32;94598.08;;;12.27;49.94
61357;BME280;47227;46.752;23.576;2024-01-07T11:54:01;94594.61;;;12.54;51.31
61357;BME280;47227;46.752;23.576;2024-01-07T11:56:29;94593.47;;;12.83;47.71
61357;BME280;47227;46.752;23.576;2024-01-07T11:58:58;94589.37;;;12.99;46.89
61357;BME280;47227;46.752;23.576;2024-01-07T12:01:27;94588.80;;;13.15;45.97
61357;BME280;47227;46.752;23.576;2024-01-07T12:03:56;94591.88;;;13.24;44.51
61357;BME280;47227;46.752;23.576;2024-01-07T12:06:25;94583.84;;;13.43;45.47
61357;BME280;47227;46.752;23.576;2024-01-07T12:08:54;94579.71;;;13.52;46.15
61357;BME280;47227;46.752;23.576;2024-01-07T12:11:23;94577.67;;;13.64;44.22
61357;BME280;47227;46.752;23.576;2024-01-07T12:13:52;94575.55;;;13.67;44.57
61357;BME280;47227;46.752;23.576;2024-01-07T12:16:21;94573.02;;;13.75;45.15
61357;BME280;47227;46.752;23.576;2024-01-07T12:18:50;94574.45;;;13.84;45.56
61357;BME280;47227;46.752;23.576;2024-01-07T12:21:19;94575.70;;;13.85;43.07
61357;BME280;47227;46.752;23.576;2024-01-07T12:23:50;94570.89;;;13.87;44.95
61357;BME280;47227;46.752;23.576;2024-01-07T12:26:19;94573.34;;;14.10;46.00
61357;BME280;47227;46.752;23.576;2024-01-07T12:28:55;94572.02;;;14.29;45.16
61357;BME280;47227;46.752;23.576;2024-01-07T12:31:31;94574.67;;;14.42;43.67
61357;BME280;47227;46.752;23.576;2024-01-07T12:34:02;94572.61;;;14.22;42.58
61357;BME280;47227;46.752;23.576;2024-01-07T12:36:33;94571.83;;;14.09;43.40
61357;BME280;47227;46.752;23.576;2024-01-07T12:39:02;94573.62;;;14.07;44.90
61357;BME280;47227;46.752;23.576;2024-01-07T12:41:30;94576.76;;;14.10;46.09
61357;BME280;47227;46.752;23.576;2024-01-07T12:43:59;94579.02;;;14.08;44.22
61357;BME280;47227;46.752;23.576;2024-01-07T12:46:27;94580.34;;;14.00;44.14
61357;BME280;47227;46.752;23.576;2024-01-07T12:48:57;94585.55;;;13.88;44.12
61357;BME280;47227;46.752;23.576;2024-01-07T12:51:25;94588.67;;;13.89;44.98
61357;BME280;47227;46.752;23.576;2024-01-07T12:53:54;94586.29;;;13.76;44.40
61357;BME280;47227;46.752;23.576;2024-01-07T12:56:24;94587.70;;;13.69;44.43
61357;BME280;47227;46.752;23.576;2024-01-07T12:58:53;94585.75;;;13.67;44.77
61357;BME280;47227;46.752;23.576;2024-01-07T13:01:21;94588.01;;;13.71;44.73
61357;BME280;47227;46.752;23.576;2024-01-07T13:03:50;94590.34;;;13.72;44.59
61357;BME280;47227;46.752;23.576;2024-01-07T13:06:19;94590.95;;;13.75;44.73
61357;BME280;47227;46.752;23.576;2024-01-07T13:08:47;94593.28;;;13.71;43.94
61357;BME280;47227;46.752;23.576;2024-01-07T13:11:16;94597.45;;;13.75;45.00
61357;BME280;47227;46.752;23.576;2024-01-07T13:13:45;94599.02;;;13.73;44.36
61357;BME280;47227;46.752;23.576;2024-01-07T13:16:14;94604.45;;;13.76;44.29